Time;durP1;ratioP1;P1;durP2;ratioP2;P2;SDS_P1;SDS_P2;PMS_P1;PMS_P2;Temp;Humidity;BMP_temperature;BMP_pressure;BME280_temperature;BME280_humidity;BME280_pressure;Samples;Min_cycle;Max_cycle;Signal;HPM_P1;HPM_P2
2021/11/21 00:02:28;;;;;;;1.75;0.30;;;;;;;4.04;100.00;97628.94;4944974;28;20070;-64
2021/11/21 00:05:14;;;;;;;1.45;0.45;;;;;;;3.97;100.00;97635.25;4952342;28;20070;-62
2021/11/21 00:07:59;;;;;;;1.17;0.32;;;;;;;3.97;100.00;97636.13;4939161;28;20107;-66
2021/11/21 00:10:44;;;;;;;0.45;0.20;;;;;;;4.05;100.00;97633.28;4938144;28;20161;-64
2021/11/21 00:13:29;;;;;;;0.85;0.20;;;;;;;4.08;100.00;97601.75;4938395;28;20065;-66
2021/11/21 00:16:14;;;;;;;1.20;0.20;;;;;;;4.05;100.00;97639.38;4937654;28;20101;-66
2021/11/21 00:18:59;;;;;;;1.20;0.30;;;;;;;4.01;100.00;97648.25;4948568;28;20139;-64
2021/11/21 00:21:44;;;;;;;0.95;0.30;;;;;;;4.00;100.00;97629.94;4942250;28;20054;-63
2021/11/21 00:24:29;;;;;;;0.40;0.20;;;;;;;4.03;100.00;97645.56;4935292;28;20085;-67
2021/11/21 00:27:15;;;;;;;1.40;0.40;;;;;;;4.06;100.00;97648.97;4937713;28;20468;-68
2021/11/21 00:30:00;;;;;;;1.35;0.30;;;;;;;4.13;100.00;97668.00;4951109;28;20157;-67
2021/11/21 00:32:48;;;;;;;1.55;0.40;;;;;;;4.16;100.00;97642.53;4937987;28;20423;-67
2021/11/21 00:35:33;;;;;;;0.90;0.20;;;;;;;4.11;100.00;97651.44;4943274;28;20050;-68
2021/11/21 00:38:17;;;;;;;1.58;0.30;;;;;;;4.16;100.00;97647.78;4934687;28;20055;-75
2021/11/21 00:41:03;;;;;;;2.08;0.50;;;;;;;4.18;100.00;97661.72;4953705;28;20062;-70
2021/11/21 00:43:47;;;;;;;1.77;0.30;;;;;;;4.14;100.00;97660.09;4939204;28;20534;-67
2021/11/21 00:46:32;;;;;;;1.92;0.22;;;;;;;4.20;100.00;97670.41;4951190;28;20596;-68
2021/11/21 00:49:19;;;;;;;1.52;0.20;;;;;;;4.09;100.00;97672.47;4926669;28;20062;-68
2021/11/21 00:52:04;;;;;;;3.75;0.30;;;;;;;4.09;100.00;97674.22;4940572;28;20121;-71
2021/11/21 00:54:53;;;;;;;1.40;0.30;;;;;;;4.07;100.00;97662.91;4938978;29;20058;-68
2021/11/21 00:57:39;;;;;;;0.75;0.20;;;;;;;4.10;100.00;97666.34;4938598;28;20053;-68
2021/11/21 01:00:24;;;;;;;1.10;0.30;;;;;;;4.23;100.00;97679.94;4939217;29;20058;-67
2021/11/21 01:03:12;;;;;;;;;;;;;;;4.08;100.00;97678.59;4940205;28;20079;-67
2021/11/21 01:05:59;;;;;;;1.42;0.20;;;;;;;4.01;100.00;97665.72;4952822;28;19925;-69
2021/11/21 01:08:44;;;;;;;0.57;0.30;;;;;;;3.94;100.00;97695.63;4941996;29;20093;-69
2021/11/21 01:11:28;;;;;;;0.40;0.30;;;;;;;3.90;100.00;97689.63;4951853;28;20117;-75
2021/11/21 01:14:13;;;;;;;0.68;0.20;;;;;;;3.76;100.00;97683.03;4936818;29;20054;-68
2021/11/21 01:16:58;;;;;;;0.60;0.30;;;;;;;3.76;100.00;97686.50;4936856;29;20411;-70
2021/11/21 01:19:44;;;;;;;2.47;0.40;;;;;;;3.87;100.00;97702.78;4938891;28;20598;-69
2021/11/21 01:22:32;;;;;;;1.00;0.30;;;;;;;3.99;100.00;97702.47;4939856;28;20046;-70
2021/11/21 01:25:19;;;;;;;0.43;0.40;;;;;;;4.02;100.00;97706.75;4940399;29;20105;-74
2021/11/21 01:28:05;;;;;;;0.50;0.32;;;;;;;4.02;100.00;97712.88;4948161;28;20054;-69
2021/11/21 01:30:50;;;;;;;0.82;0.50;;;;;;;3.97;100.00;97709.53;4954287;28;20111;-70
2021/11/21 01:33:37;;;;;;;3.83;0.35;;;;;;;3.97;100.00;97709.53;4958112;28;20056;-69
2021/11/21 01:36:22;;;;;;;1.25;0.47;;;;;;;4.06;100.00;97709.28;4943837;28;20054;-67
2021/11/21 01:39:07;;;;;;;0.85;0.45;;;;;;;4.09;100.00;97713.56;4957382;28;20471;-72
2021/11/21 01:41:52;;;;;;;;;;;;;;;4.03;100.00;97711.09;4932873;29;20150;-69
2021/11/21 01:44:38;;;;;;;0.98;0.40;;;;;;;4.04;100.00;97710.22;4943682;29;19969;-70
2021/11/21 01:47:22;;;;;;;0.32;0.20;;;;;;;4.11;100.00;97725.72;4942582;28;20058;-68
2021/11/21 01:50:12;;;;;;;0.77;0.40;;;;;;;3.96;100.00;97727.91;4947439;28;20102;-68
2021/11/21 01:52:58;;;;;;;0.68;0.30;;;;;;;3.87;100.00;97730.75;4957470;28;20082;-69
2021/11/21 01:55:47;;;;;;;0.55;0.32;;;;;;;3.83;100.00;97729.97;4944675;28;20054;-68
2021/11/21 01:58:34;;;;;;;0.73;0.40;;;;;;;3.70;100.00;97731.22;4943594;28;20166;-71
2021/11/21 02:01:19;;;;;;;0.80;0.30;;;;;;;3.70;100.00;97725.09;4956045;28;20062;-69
2021/11/21 02:04:05;;;;;;;1.35;0.55;;;;;;;3.75;100.00;97737.19;4939472;28;20080;-69
2021/11/21 02:06:49;;;;;;;1.60;0.20;;;;;;;3.81;100.00;97746.66;4961942;28;20053;-69
2021/11/21 02:09:35;;;;;;;1.50;0.25;;;;;;;3.82;100.00;97746.63;4946407;28;20054;-67
2021/11/21 02:12:20;;;;;;;0.30;0.20;;;;;;;3.89;100.00;97739.44;4928017;29;20081;-72
2021/11/21 02:15:10;;;;;;;0.73;0.50;;;;;;;3.83;100.00;97742.22;4941218;28;20207;-69
2021/11/21 02:17:56;;;;;;;2.55;0.40;;;;;;;3.89;100.00;97747.31;4951678;28;20111;-67
2021/11/21 02:20:41;;;;;;;0.57;0.32;;;;;;;3.91;100.00;97749.00;4953217;28;20057;-66
2021/11/21 02:23:26;;;;;;;0.63;0.30;;;;;;;4.00;100.00;97756.59;4967930;28;20093;-67
2021/11/21 02:26:13;;;;;;;1.52;0.50;;;;;;;3.86;100.00;97752.63;4951336;28;20102;-67
2021/11/21 02:28:58;;;;;;;1.83;0.40;;;;;;;3.64;100.00;97736.59;4956508;28;20050;-64
2021/11/21 02:31:43;;;;;;;1.25;0.47;;;;;;;3.70;100.00;97744.31;4949508;28;20151;-66
2021/11/21 02:34:27;;;;;;;0.73;0.30;;;;;;;3.55;100.00;97741.19;4939850;28;20053;-65
2021/11/21 02:37:12;;;;;;;0.90;0.30;;;;;;;3.44;100.00;97751.09;4944592;28;20534;-65
2021/11/21 02:39:56;;;;;;;3.90;0.50;;;;;;;3.53;100.00;97749.09;4949460;28;20052;-66
2021/11/21 02:42:41;;;;;;;1.75;0.52;;;;;;;3.52;100.00;97749.16;4930951;29;20154;-65
2021/11/21 02:45:26;;;;;;;0.65;0.47;;;;;;;3.49;100.00;97749.22;4924042;29;20637;-63
2021/11/21 02:48:14;;;;;;;0.73;0.30;;;;;;;3.46;100.00;97751.91;4944574;28;20151;-66
2021/11/21 02:51:01;;;;;;;0.50;0.40;;;;;;;3.49;100.00;97750.06;4935057;28;20050;-65
2021/11/21 02:53:46;;;;;;;4.55;0.40;;;;;;;3.34;100.00;97760.94;4935125;28;20066;-65
2021/11/21 02:56:31;;;;;;;;;;;;;;;3.30;100.00;97751.44;4939391;28;20054;-65
2021/11/21 02:59:26;;;;;;;0.90;0.40;;;;;;;3.34;100.00;97758.31;4958502;28;19929;-66
2021/11/21 03:02:11;;;;;;;0.75;0.30;;;;;;;3.30;100.00;97768.88;4932606;29;20536;-69
2021/11/21 03:04:57;;;;;;;1.08;0.50;;;;;;;3.44;100.00;97762.41;4933137;29;20062;-68
2021/11/21 03:07:42;;;;;;;0.77;0.40;;;;;;;3.47;100.00;97754.50;4933958;28;20122;-69
2021/11/21 03:10:28;;;;;;;0.50;0.43;;;;;;;3.43;100.00;97760.69;4934894;29;20110;-67
2021/11/21 03:13:12;;;;;;;1.40;0.40;;;;;;;3.36;100.00;97745.19;4941046;28;20098;-67
2021/11/21 03:15:56;;;;;;;4.10;0.52;;;;;;;3.44;100.00;97769.44;4947943;28;20201;-69
2021/11/21 03:18:41;;;;;;;1.23;0.40;;;;;;;3.44;100.00;97745.84;4935717;29;20054;-71
2021/11/21 03:21:26;;;;;;;1.60;0.40;;;;;;;3.38;100.00;97766.94;4943429;28;20081;-66
2021/11/21 03:24:11;;;;;;;1.27;0.35;;;;;;;3.44;100.00;97770.28;4934211;29;20453;-69
2021/11/21 03:26:56;;;;;;;2.20;0.47;;;;;;;3.46;100.00;97765.88;4947970;28;20053;-68
2021/11/21 03:29:41;;;;;;;1.08;0.32;;;;;;;3.54;100.00;97766.56;4945985;28;20042;-68
2021/11/21 03:32:26;;;;;;;0.77;0.40;;;;;;;3.55;100.00;97770.00;4930014;29;20563;-66
2021/11/21 03:35:12;;;;;;;1.30;0.50;;;;;;;3.49;100.00;97763.16;4945669;28;20050;-65
2021/11/21 03:37:57;;;;;;;3.58;1.35;;;;;;;3.51;100.00;97771.84;4926571;29;20058;-68
2021/11/21 03:40:42;;;;;;;1.70;1.02;;;;;;;3.39;100.00;97763.41;4937623;29;20149;-67
2021/11/21 03:43:27;;;;;;;2.05;0.90;;;;;;;3.42;100.00;97773.84;4973892;28;20475;-67
2021/11/21 03:46:12;;;;;;;3.78;1.42;;;;;;;3.46;100.00;97768.50;4937039;29;20531;-68
2021/11/21 03:48:56;;;;;;;1.50;0.70;;;;;;;3.44;100.00;97765.03;4943885;28;20137;-68
2021/11/21 03:51:41;;;;;;;1.17;0.60;;;;;;;3.43;100.00;97776.41;4939282;28;20050;-68
2021/11/21 03:54:26;;;;;;;0.93;0.40;;;;;;;3.49;100.00;97770.19;4934442;29;20046;-67
2021/11/21 03:57:11;;;;;;;1.67;0.55;;;;;;;3.52;100.00;97770.09;4934755;29;20425;-73
2021/11/21 03:59:57;;;;;;;2.38;0.65;;;;;;;3.53;100.00;97770.03;4932347;29;20054;-67
2021/11/21 04:02:41;;;;;;;;;;;;;;;3.63;100.00;97761.06;4942633;28;20055;-67
2021/11/21 04:05:26;;;;;;;4.03;0.45;;;;;;;3.57;100.00;97765.59;4940096;28;20433;-67
2021/11/21 04:08:11;;;;;;;1.95;0.80;;;;;;;3.57;100.00;97763.00;4941017;28;20102;-67
2021/11/21 04:10:56;;;;;;;0.70;0.50;;;;;;;3.61;100.00;97762.03;4931145;29;20058;-68
2021/11/21 04:13:41;;;;;;;1.58;0.40;;;;;;;3.62;100.00;97769.84;4930364;29;20051;-65
2021/11/21 04:16:27;;;;;;;1.00;0.57;;;;;;;3.61;100.00;97765.47;4929015;29;20816;-75
2021/11/21 04:19:12;;;;;;;0.95;0.40;;;;;;;3.58;100.00;97778.69;4947616;28;20526;-70
2021/11/21 04:21:57;;;;;;;1.95;0.80;;;;;;;3.63;100.00;97776.78;4957775;28;20050;-66
2021/11/21 04:24:42;;;;;;;1.50;0.52;;;;;;;3.52;100.00;97789.28;4948660;29;20049;-67
2021/11/21 04:27:27;;;;;;;1.60;0.50;;;;;;;3.43;100.00;97780.78;4939991;28;20528;-67
2021/11/21 04:30:15;;;;;;;0.47;0.47;;;;;;;3.32;100.00;97775.81;4930948;29;20110;-63
2021/11/21 04:33:00;;;;;;;0.47;0.40;;;;;;;3.39;100.00;97792.22;4946953;29;20069;-65
2021/11/21 04:35:44;;;;;;;2.53;0.60;;;;;;;3.39;100.00;97779.13;4944680;28;20420;-71
2021/11/21 04:38:29;;;;;;;3.25;0.50;;;;;;;3.31;100.00;97788.94;4959321;28;20131;-66
2021/11/21 04:41:13;;;;;;;0.70;0.40;;;;;;;3.34;100.00;97788.88;4942547;28;20102;-66
2021/11/21 04:43:58;;;;;;;0.93;0.80;;;;;;;3.37;100.00;97787.03;4941024;28;20051;-67
2021/11/21 04:46:43;;;;;;;1.67;0.50;;;;;;;3.31;100.00;97792.41;4935290;29;20066;-70
2021/11/21 04:49:27;;;;;;;0.75;0.47;;;;;;;3.27;100.00;97803.00;4933237;29;20062;-65
2021/11/21 04:52:12;;;;;;;0.93;0.55;;;;;;;3.25;100.00;97799.56;4954576;28;20135;-69
2021/11/21 04:54:57;;;;;;;1.95;0.55;;;;;;;3.36;100.00;97801.03;4942975;28;20046;-70
2021/11/21 04:57:42;;;;;;;2.55;0.60;;;;;;;3.47;100.00;97803.38;4935225;28;20050;-69
2021/11/21 05:00:28;;;;;;;0.95;0.50;;;;;;;3.34;100.00;97804.56;4927375;29;20110;-66
2021/11/21 05:03:14;;;;;;;4.43;0.60;;;;;;;3.31;100.00;97797.66;4946395;28;20058;-66
2021/11/21 05:05:58;;;;;;;1.80;0.57;;;;;;;3.41;100.00;97806.16;4929801;28;20186;-67
2021/11/21 05:08:42;;;;;;;2.85;0.70;;;;;;;3.44;100.00;97800.88;4944928;28;20093;-65
2021/11/21 05:11:27;;;;;;;3.65;0.60;;;;;;;3.45;100.00;97819.13;4931027;29;20050;-66
2021/11/21 05:14:17;;;;;;;1.85;0.60;;;;;;;3.34;100.00;97812.44;4940457;28;20058;-76
2021/11/21 05:17:02;;;;;;;0.75;0.50;;;;;;;3.41;100.00;97812.25;4936817;29;20515;-68
2021/11/21 05:19:47;;;;;;;4.97;0.80;;;;;;;3.46;100.00;97814.78;4940202;29;20054;-70
2021/11/21 05:22:32;;;;;;;2.10;0.40;;;;;;;3.45;100.00;97813.91;4937358;28;20061;-68
2021/11/21 05:25:17;;;;;;;2.42;0.60;;;;;;;3.52;100.00;97823.34;4932663;29;20090;-66
2021/11/21 05:28:02;;;;;;;1.88;0.60;;;;;;;3.63;100.00;97829.19;4929303;29;20058;-75
2021/11/21 05:30:49;;;;;;;1.80;0.50;;;;;;;3.81;100.00;97833.13;4937407;28;20054;-69
2021/11/21 05:33:34;;;;;;;1.50;0.40;;;;;;;3.74;100.00;97839.41;4959058;28;20054;-68
2021/11/21 05:36:19;;;;;;;0.50;0.30;;;;;;;3.56;100.00;97821.53;4948304;28;20074;-68
2021/11/21 05:39:04;;;;;;;0.85;0.30;;;;;;;3.45;100.00;97831.38;4951349;28;20230;-66
2021/11/21 05:41:48;;;;;;;0.95;0.40;;;;;;;3.37;100.00;97843.78;4936190;28;20098;-67
2021/11/21 05:44:33;;;;;;;1.42;0.40;;;;;;;3.34;100.00;97829.03;4942984;29;20062;-65
2021/11/21 05:47:17;;;;;;;1.10;0.60;;;;;;;3.49;100.00;97846.97;4936203;29;20058;-75
2021/11/21 05:50:03;;;;;;;2.17;0.77;;;;;;;3.58;100.00;97848.53;4944651;29;20320;-65
2021/11/21 05:52:50;;;;;;;3.03;1.40;;;;;;;3.46;100.00;97835.72;4943262;28;20602;-66
2021/11/21 05:55:35;;;;;;;4.60;1.92;;;;;;;3.50;100.00;97840.00;4956178;28;20066;-66
2021/11/21 05:58:23;;;;;;;3.05;1.55;;;;;;;3.50;100.00;97834.75;4931019;28;20118;-66
2021/11/21 06:01:07;;;;;;;2.78;0.88;;;;;;;3.53;100.00;97826.84;4947899;28;20054;-66
2021/11/21 06:03:53;;;;;;;1.27;0.80;;;;;;;3.46;100.00;97833.09;4945891;29;20058;-69
2021/11/21 06:06:38;;;;;;;3.25;1.30;;;;;;;3.49;100.00;97841.75;4941659;28;20058;-70
2021/11/21 06:09:22;;;;;;;2.92;1.40;;;;;;;3.59;100.00;97838.03;4947202;28;20424;-69
2021/11/21 06:12:07;;;;;;;2.28;1.20;;;;;;;3.67;100.00;97845.69;4929884;29;20062;-73
2021/11/21 06:14:52;;;;;;;5.20;1.60;;;;;;;3.68;100.00;97852.69;4934343;29;20050;-66
2021/11/21 06:17:37;;;;;;;2.90;1.33;;;;;;;3.55;100.00;97848.59;4930157;29;20058;-69
2021/11/21 06:20:22;;;;;;;1.92;0.80;;;;;;;3.48;100.00;97844.44;4943651;28;20578;-66
2021/11/21 06:23:07;;;;;;;3.42;0.90;;;;;;;3.51;100.00;97836.47;4968814;28;20057;-71
2021/11/21 06:25:52;;;;;;;2.35;0.82;;;;;;;3.57;100.00;97846.81;4958164;28;20055;-77
2021/11/21 06:28:37;;;;;;;2.22;0.82;;;;;;;3.52;100.00;97827.75;4944126;28;20087;-69
2021/11/21 06:31:21;;;;;;;3.17;1.10;;;;;;;3.62;100.00;97839.72;4945928;28;20193;-68
2021/11/21 06:34:06;;;;;;;4.00;0.60;;;;;;;3.71;100.00;97842.09;4949330;28;20306;-71
2021/11/21 06:36:51;;;;;;;3.80;0.60;;;;;;;3.78;100.00;97849.81;4935103;28;20329;-73
2021/11/21 06:39:41;;;;;;;4.50;0.50;;;;;;;3.83;100.00;97847.94;4937452;28;20475;-72
2021/11/21 06:42:26;;;;;;;2.35;0.70;;;;;;;3.77;100.00;97832.34;4954155;28;20086;-71
2021/11/21 06:45:12;;;;;;;1.63;0.55;;;;;;;3.92;100.00;97857.34;4945756;29;20123;-76
2021/11/21 06:47:57;;;;;;;3.88;0.80;;;;;;;4.02;100.00;97861.44;4930344;29;20129;-73
2021/11/21 06:50:42;;;;;;;3.92;1.27;;;;;;;3.97;100.00;97860.69;4952115;28;20054;-72
2021/11/21 06:53:27;;;;;;;4.88;1.52;;;;;;;3.95;100.00;97857.25;4947598;28;20424;-72
2021/11/21 06:56:12;;;;;;;3.95;1.65;;;;;;;3.83;100.00;97844.44;4949260;28;20051;-70
2021/11/21 06:58:57;;;;;;;2.88;1.33;;;;;;;3.99;100.00;97861.50;4932026;29;20058;-72
2021/11/21 07:01:42;;;;;;;2.60;1.10;;;;;;;3.98;100.00;97859.78;4936596;28;20534;-69
2021/11/21 07:04:26;;;;;;;2.28;1.10;;;;;;;3.89;100.00;97862.66;4938102;28;20146;-65
2021/11/21 07:07:12;;;;;;;2.67;1.02;;;;;;;4.00;100.00;97873.75;4939736;28;20110;-67
2021/11/21 07:10:00;;;;;;;3.90;1.00;;;;;;;3.99;100.00;97870.25;4946631;28;20106;-66
2021/11/21 07:12:45;;;;;;;3.67;0.80;;;;;;;3.99;100.00;97859.75;4948837;29;20447;-68
2021/11/21 07:15:32;;;;;;;2.47;0.60;;;;;;;3.92;100.00;97871.28;4943940;28;20058;-69
2021/11/21 07:18:17;;;;;;;0.90;0.50;;;;;;;4.02;100.00;97864.06;4945545;28;20069;-75
2021/11/21 07:21:08;;;;;;;3.25;0.88;;;;;;;4.00;100.00;97853.59;4948026;28;20063;-75
2021/11/21 07:23:54;;;;;;;3.63;0.68;;;;;;;3.98;100.00;97870.28;4948840;28;20062;-70
2021/11/21 07:26:40;;;;;;;2.58;0.50;;;;;;;4.01;100.00;97868.47;4916349;29;20074;-66
2021/11/21 07:29:31;;;;;;;2.08;0.63;;;;;;;4.05;100.00;97879.72;4937252;28;20427;-69
2021/11/21 07:32:19;;;;;;;2.45;0.90;;;;;;;4.09;100.00;97877.00;4919290;29;20058;-67
2021/11/21 07:35:06;;;;;;;2.30;0.95;;;;;;;4.11;100.00;97880.44;4929488;29;20131;-70
2021/11/21 07:37:51;;;;;;;2.00;0.80;;;;;;;4.26;100.00;97893.16;4960243;28;20062;-73
2021/11/21 07:40:38;;;;;;;2.00;1.05;;;;;;;4.23;100.00;97887.13;4937282;28;20118;-68
2021/11/21 07:43:23;;;;;;;3.17;0.95;;;;;;;4.07;100.00;97880.53;4954084;28;20123;-68
2021/11/21 07:46:09;;;;;;;4.18;1.08;;;;;;;4.13;100.00;97888.25;4928186;29;20059;-72
2021/11/21 07:48:54;;;;;;;2.80;1.23;;;;;;;4.23;100.00;97887.13;4958777;28;20066;-70
2021/11/21 07:51:39;;;;;;;1.63;0.80;;;;;;;4.10;100.00;97869.97;4923495;28;20050;-71
2021/11/21 07:54:24;;;;;;;2.75;0.90;;;;;;;4.13;100.00;97889.13;4946087;28;20527;-70
2021/11/21 07:57:12;;;;;;;1.23;0.60;;;;;;;4.03;100.00;97898.09;4944206;28;20057;-70
2021/11/21 07:59:57;;;;;;;2.42;1.00;;;;;;;4.04;100.00;97888.50;4944416;28;20063;-74
2021/11/21 08:02:43;;;;;;;2.83;1.17;;;;;;;4.05;100.00;97890.22;4930109;29;20075;-67
2021/11/21 08:05:27;;;;;;;2.83;1.00;;;;;;;4.03;100.00;97899.84;4939600;28;20050;-67
2021/11/21 08:08:12;;;;;;;4.50;1.00;;;;;;;4.07;100.00;97899.75;4937549;28;20145;-65
2021/11/21 08:10:57;;;;;;;2.60;0.70;;;;;;;4.16;100.00;97904.78;4923095;29;20059;-65
2021/11/21 08:13:43;;;;;;;2.35;1.00;;;;;;;4.26;100.00;97897.53;4945463;28;20827;-64
2021/11/21 08:16:31;;;;;;;3.35;1.00;;;;;;;4.34;100.00;97895.59;4941267;28;20050;-68
2021/11/21 08:19:16;;;;;;;1.88;0.70;;;;;;;4.25;100.00;97894.06;4938138;28;20050;-76
2021/11/21 08:22:00;;;;;;;4.13;1.08;;;;;;;4.27;100.00;97900.13;4941239;28;20105;-69
2021/11/21 08:24:45;;;;;;;;;;;;;;;4.31;100.00;97900.91;4938794;28;20397;-69
2021/11/21 08:27:31;;;;;;;1.80;0.90;;;;;;;4.26;100.00;97908.91;4953821;28;20351;-73
2021/11/21 08:30:15;;;;;;;1.63;0.75;;;;;;;4.24;100.00;97915.09;4934983;28;20082;-71
2021/11/21 08:33:07;;;;;;;2.70;1.05;;;;;;;4.29;100.00;97908.84;4940796;28;20062;-79
2021/11/21 08:35:54;;;;;;;2.05;0.80;;;;;;;4.31;100.00;97895.66;4963756;28;20099;-70
2021/11/21 08:38:38;;;;;;;3.08;1.20;;;;;;;4.38;100.00;97908.59;4941299;28;20142;-71
2021/11/21 08:41:23;;;;;;;6.63;1.10;;;;;;;4.45;100.00;97897.06;4951903;28;20134;-72
2021/11/21 08:44:08;;;;;;;5.00;1.38;;;;;;;4.52;100.00;97906.47;4954754;28;20058;-70
2021/11/21 08:46:54;;;;;;;3.38;1.77;;;;;;;4.42;100.00;97917.25;4953716;28;20110;-74
2021/11/21 08:49:39;;;;;;;4.28;1.05;;;;;;;4.51;100.00;97911.78;4938481;28;20484;-71
2021/11/21 08:52:24;;;;;;;3.00;1.55;;;;;;;4.55;100.00;97908.19;4950304;28;20451;-78
2021/11/21 08:55:10;;;;;;;2.88;0.90;;;;;;;4.51;100.00;97904.75;4939323;29;20109;-70
2021/11/21 08:57:56;;;;;;;3.88;1.10;;;;;;;4.48;100.00;97898.72;4923120;29;20050;-74
2021/11/21 09:00:42;;;;;;;5.05;1.30;;;;;;;4.54;100.00;97904.69;4947720;28;20241;-70
2021/11/21 09:03:27;;;;;;;5.53;1.33;;;;;;;4.49;100.00;97916.19;4936784;29;20667;-71
2021/11/21 09:06:11;;;;;;;2.95;1.45;;;;;;;4.46;100.00;97893.53;4939600;28;20050;-73
2021/11/21 09:08:56;;;;;;;4.45;1.73;;;;;;;4.64;100.00;97911.41;4940149;28;20948;-71
2021/11/21 09:11:43;;;;;;;1.95;1.02;;;;;;;4.63;100.00;97912.31;4935879;29;20066;-73
2021/11/21 09:14:30;;;;;;;4.72;1.27;;;;;;;4.62;100.00;97909.72;4940959;28;20122;-73
2021/11/21 09:17:17;;;;;;;4.20;1.35;;;;;;;4.61;100.00;97910.63;4937672;28;20054;-72
2021/11/21 09:20:05;;;;;;;5.25;2.00;;;;;;;4.60;100.00;97914.16;4941486;28;20062;-72
2021/11/21 09:22:52;;;;;;;4.57;0.85;;;;;;;4.66;100.00;97903.47;4957349;28;20062;-68
2021/11/21 09:25:39;;;;;;;7.75;3.85;;;;;;;4.60;100.00;97929.91;4926609;28;20411;-73
2021/11/21 09:28:26;;;;;;;9.40;4.00;;;;;;;4.72;100.00;97914.69;4938607;28;20571;-67
2021/11/21 09:31:13;;;;;;;20.40;6.93;;;;;;;4.75;100.00;97919.00;4938213;28;20102;-71
2021/11/21 09:34:00;;;;;;;4.97;2.03;;;;;;;4.79;100.00;97920.66;4925312;29;20065;-69
2021/11/21 09:36:45;;;;;;;2.30;1.27;;;;;;;4.82;100.00;97918.78;4927225;28;20062;-73
2021/11/21 09:39:31;;;;;;;2.55;1.00;;;;;;;4.91;100.00;97925.56;4937806;28;20051;-73
2021/11/21 09:42:20;;;;;;;3.10;1.02;;;;;;;4.88;100.00;97921.25;4951788;28;20059;-72
2021/11/21 09:45:13;;;;;;;1.95;0.90;;;;;;;5.03;100.00;97918.19;4958168;28;20137;-73
2021/11/21 09:48:04;;;;;;;2.22;1.00;;;;;;;4.96;100.00;97921.06;4939119;28;20603;-80
2021/11/21 09:50:49;;;;;;;2.30;1.27;;;;;;;4.93;100.00;97922.00;4953738;28;20118;-70
2021/11/21 09:53:36;;;;;;;2.85;1.30;;;;;;;4.90;100.00;97926.44;4946808;28;20218;-70
2021/11/21 09:56:24;;;;;;;2.78;1.00;;;;;;;5.01;100.00;97927.03;4954015;28;20062;-70
2021/11/21 09:59:11;;;;;;;1.80;0.85;;;;;;;5.07;100.00;97933.88;4938580;29;20059;-67
2021/11/21 10:02:15;;;;;;;5.40;1.70;;;;;;;5.03;100.00;97922.63;4937627;29;20053;-70
2021/11/21 10:05:07;;;;;;;4.05;1.02;;;;;;;5.07;100.00;97926.88;4949479;28;20058;-66
2021/11/21 10:08:13;;;;;;;3.47;1.20;;;;;;;5.29;100.00;97935.03;4925233;29;20460;-69
2021/11/21 10:11:12;;;;;;;5.10;1.45;;;;;;;5.13;100.00;97933.72;4925153;28;20519;-70
2021/11/21 10:14:05;;;;;;;7.35;2.33;;;;;;;5.13;100.00;97933.72;4945925;28;20122;-70
2021/11/21 10:16:50;;;;;;;3.83;1.45;;;;;;;5.08;100.00;97929.44;4945171;28;20105;-66
2021/11/21 10:19:39;;;;;;;3.17;0.93;;;;;;;5.04;100.00;97930.41;4956716;28;20050;-70
2021/11/21 10:23:07;;;;;;;1.60;0.70;;;;;;;5.23;100.00;97948.31;4953688;28;20078;-68
2021/11/21 10:25:54;;;;;;;1.50;0.80;;;;;;;5.12;100.00;97942.50;4938129;28;20069;-68
2021/11/21 10:28:41;;;;;;;3.05;0.80;;;;;;;5.07;100.00;97953.13;4953059;28;20423;-64
2021/11/21 10:31:30;;;;;;;3.33;1.17;;;;;;;5.00;100.00;97941.91;4939453;29;20115;-66
2021/11/21 10:34:17;;;;;;;2.50;0.77;;;;;;;4.97;100.00;97928.88;4935515;29;20912;-68
2021/11/21 10:37:09;;;;;;;3.22;0.85;;;;;;;4.97;100.00;97926.25;4921877;28;20117;-72
2021/11/21 10:40:04;;;;;;;2.22;0.77;;;;;;;5.01;100.00;97934.91;4955001;28;20110;-76
2021/11/21 10:42:54;;;;;;;2.90;0.60;;;;;;;5.04;100.00;97943.56;4935031;28;20062;-72
2021/11/21 10:45:41;;;;;;;1.23;0.70;;;;;;;5.04;100.00;97946.19;4955501;28;20042;-71
2021/11/21 10:48:27;;;;;;;2.58;0.90;;;;;;;5.10;100.00;97945.16;4940747;28;20094;-68
2021/11/21 10:51:24;;;;;;;1.75;0.73;;;;;;;5.07;100.00;97951.34;4947013;28;20134;-67
2021/11/21 10:54:21;;;;;;;8.00;0.90;;;;;;;4.97;100.00;97943.78;4942944;28;20098;-69
2021/11/21 10:57:17;;;;;;;1.80;0.85;;;;;;;4.95;100.00;97951.69;4953436;28;20424;-66
2021/11/21 11:00:16;;;;;;;1.40;0.68;;;;;;;4.90;100.00;97955.34;4947294;28;20101;-70
2021/11/21 11:03:03;;;;;;;1.48;0.68;;;;;;;4.80;100.00;97959.13;4942545;28;20075;-71
2021/11/21 11:05:56;;;;;;;1.40;0.80;;;;;;;4.81;100.00;97963.47;4968844;28;20377;-70
2021/11/21 11:08:42;;;;;;;1.55;0.70;;;;;;;4.70;100.00;97960.25;4946335;28;20073;-69
2021/11/21 11:11:29;;;;;;;2.90;0.90;;;;;;;4.67;100.00;97961.19;4930385;29;20547;-72
2021/11/21 11:14:18;;;;;;;2.53;0.80;;;;;;;4.79;100.00;97958.25;4936451;28;20069;-71
2021/11/21 11:17:05;;;;;;;1.67;0.88;;;;;;;4.74;100.00;97925.13;4936594;28;20845;-72
2021/11/21 11:19:59;;;;;;;1.17;0.70;;;;;;;4.70;100.00;97955.88;4911442;29;20082;-71
2021/11/21 11:22:46;;;;;;;2.55;0.80;;;;;;;4.74;100.00;97954.88;4938462;28;20534;-71
2021/11/21 11:25:34;;;;;;;2.63;0.70;;;;;;;4.76;100.00;97955.69;4937470;28;20139;-68
2021/11/21 11:28:27;;;;;;;4.03;0.90;;;;;;;4.75;100.00;97948.72;4944827;28;20075;-69
2021/11/21 11:31:27;;;;;;;1.60;1.10;;;;;;;4.72;100.00;97958.47;4952575;28;20054;-69
2021/11/21 11:34:35;;;;;;;3.30;1.25;;;;;;;4.82;100.00;97966.06;4937674;28;20050;-70
2021/11/21 11:37:55;;;;;;;1.83;0.82;;;;;;;4.75;100.00;97953.13;4928921;28;20058;-74
2021/11/21 11:40:44;;;;;;;1.58;0.88;;;;;;;4.67;100.00;97976.09;4939189;29;20063;-70
2021/11/21 11:43:40;;;;;;;2.63;0.95;;;;;;;4.81;100.00;97961.72;4944188;28;20588;-75
2021/11/21 11:46:49;;;;;;;1.73;1.10;;;;;;;4.84;100.00;97969.47;4936320;28;20907;-72
2021/11/21 11:49:42;;;;;;;2.25;0.63;;;;;;;4.90;100.00;97963.22;4945573;28;20066;-72
2021/11/21 11:52:57;;;;;;;2.40;0.80;;;;;;;5.00;100.00;97957.66;4915224;28;20045;-74
2021/11/21 11:56:20;;;;;;;3.42;1.17;;;;;;;5.04;100.00;97961.09;4929400;29;20139;-72
2021/11/21 11:59:08;;;;;;;3.38;0.70;;;;;;;4.93;100.00;97943.00;4939814;28;20122;-73
2021/11/21 12:02:02;;;;;;;1.10;0.82;;;;;;;4.89;100.00;97951.00;4947342;28;20126;-71
2021/11/21 12:04:50;;;;;;;4.68;0.80;;;;;;;4.79;100.00;97954.78;4952258;28;20078;-77
2021/11/21 12:07:42;;;;;;;5.25;1.00;;;;;;;4.88;100.00;97965.88;4928611;28;20090;-69
2021/11/21 12:10:46;;;;;;;2.60;1.15;;;;;;;5.04;100.00;97961.09;4939018;28;20107;-70
2021/11/21 12:13:35;;;;;;;4.47;1.52;;;;;;;4.97;100.00;97960.41;4926351;29;20129;-74
2021/11/21 12:16:21;;;;;;;6.13;2.00;;;;;;;5.07;100.00;97970.66;4943926;28;20112;-72
2021/11/21 12:19:07;;;;;;;8.18;2.13;;;;;;;5.06;100.00;97966.31;4950634;28;20067;-75
2021/11/21 12:21:54;;;;;;;5.78;2.35;;;;;;;5.13;100.00;97975.75;4915766;28;20065;-73
2021/11/21 12:24:46;;;;;;;3.08;1.70;;;;;;;5.16;100.00;97971.25;4916923;29;20059;-65
2021/11/21 12:27:34;;;;;;;8.77;2.58;;;;;;;5.10;100.00;97976.66;4950979;28;20101;-70
2021/11/21 12:30:28;;;;;;;4.15;1.58;;;;;;;4.93;100.00;97968.38;4943981;28;20066;-71
2021/11/21 12:33:23;;;;;;;3.65;1.50;;;;;;;4.98;100.00;97977.00;4941590;28;20042;-73
2021/11/21 12:36:24;;;;;;;4.45;1.38;;;;;;;4.90;100.00;97971.09;4943885;28;20061;-74
2021/11/21 12:39:29;;;;;;;12.18;2.28;;;;;;;4.96;100.00;97970.94;4937892;28;20579;-72
2021/11/21 12:42:17;;;;;;;7.07;2.25;;;;;;;4.94;100.00;97973.59;4939286;28;20081;-74
2021/11/21 12:45:20;;;;;;;5.72;2.22;;;;;;;5.00;100.00;97983.09;4931580;28;20050;-68
2021/11/21 12:48:08;;;;;;;4.95;2.45;;;;;;;4.86;100.00;97983.44;4926702;29;20065;-68
2021/11/21 12:51:03;;;;;;;13.70;6.25;;;;;;;4.85;100.00;97984.34;4944191;28;20486;-69
2021/11/21 12:53:51;;;;;;;7.88;3.83;;;;;;;4.88;100.00;97986.88;4942844;28;20134;-68
2021/11/21 12:56:37;;;;;;;10.50;4.18;;;;;;;4.91;100.00;97978.09;4959455;28;20764;-69
2021/11/21 12:59:50;;;;;;;8.75;3.33;;;;;;;4.95;100.00;97987.59;4940219;28;20110;-71
2021/11/21 13:02:35;;;;;;;3.13;1.40;;;;;;;4.83;100.00;97983.53;4923164;28;20652;-72
2021/11/21 13:05:22;;;;;;;4.30;1.60;;;;;;;4.85;100.00;97993.97;4941629;28;20468;-69
2021/11/21 13:08:26;;;;;;;9.32;2.15;;;;;;;4.95;100.00;97980.56;4925171;28;20550;-70
2021/11/21 13:11:29;;;;;;;4.57;2.40;;;;;;;4.88;100.00;97983.41;4938088;28;20049;-73